Time;durP1;ratioP1;P1;durP2;ratioP2;P2;SDS_P1;SDS_P2;PMS_P1;PMS_P2;Temp;Humidity;BMP_temperature;BMP_pressure;BME280_temperature;BME280_humidity;BME280_pressure;Samples;Min_cycle;Max_cycle;Signal;HPM_P1;HPM_P2
2022/01/05 00:00:23;;;;;;;72.82;67.00;;;;;;;0.36;100.00;100388.25;5043150;28;20056;-81
2022/01/05 00:02:50;;;;;;;72.18;65.57;;;;;;;0.23;100.00;100391.22;5050281;28;20374;-81
2022/01/05 00:05:17;;;;;;;64.35;58.08;;;;;;;0.15;100.00;100387.69;5053165;28;20053;-80
2022/01/05 00:07:45;;;;;;;72.07;65.90;;;;;;;0.54;100.00;100393.47;5037293;28;20140;-80
2022/01/05 00:10:12;;;;;;;72.68;66.03;;;;;;;0.27;100.00;100385.69;5044652;28;20114;-80
2022/01/05 00:12:39;;;;;;;115.45;107.07;;;;;;;0.29;100.00;100389.00;5043325;28;20060;-82
2022/01/05 00:15:07;;;;;;;122.38;113.15;;;;;;;0.19;100.00;100383.84;5047032;28;20055;-81
2022/01/05 00:17:34;;;;;;;122.53;113.57;;;;;;;0.34;100.00;100392.81;5045515;28;20049;-80
2022/01/05 00:20:01;;;;;;;112.50;103.63;;;;;;;-0.06;100.00;100388.78;5036079;28;20045;-80
2022/01/05 00:22:29;;;;;;;110.85;102.78;;;;;;;0.19;100.00;100389.06;5032057;28;20114;-81
2022/01/05 00:24:57;;;;;;;165.35;122.93;;;;;;;0.16;100.00;100395.38;5043069;28;20053;-80
2022/01/05 00:27:24;;;;;;;143.60;115.10;;;;;;;0.12;100.00;100393.19;5049317;28;20048;-80
2022/01/05 00:29:51;;;;;;;150.50;110.88;;;;;;;-0.11;100.00;100391.00;5045883;28;20523;-80
2022/01/05 00:32:18;;;;;;;122.93;112.53;;;;;;;-0.01;100.00;100391.75;5041405;28;20041;-82
2022/01/05 00:34:44;;;;;;;129.63;117.93;;;;;;;-0.05;100.00;100397.44;5051828;28;20045;-81
2022/01/05 00:37:11;;;;;;;136.40;122.00;;;;;;;-0.30;100.00;100402.34;5050383;28;20056;-80
2022/01/05 00:39:38;;;;;;;111.45;102.03;;;;;;;0.11;100.00;100394.19;5040363;28;20049;-80
2022/01/05 00:42:07;;;;;;;61.08;55.70;;;;;;;0.07;100.00;100390.22;5044382;28;20212;-81
2022/01/05 00:44:34;;;;;;;64.78;59.30;;;;;;;0.02;100.00;100382.81;5042972;28;20049;-83
2022/01/05 00:47:01;;;;;;;74.38;67.47;;;;;;;-0.17;100.00;100385.53;5040753;28;20042;-80
2022/01/05 00:49:28;;;;;;;90.00;82.20;;;;;;;-0.02;100.00;100386.69;5044293;28;20053;-80
2022/01/05 00:51:54;;;;;;;96.25;88.45;;;;;;;-0.04;100.00;100386.00;5042333;28;20057;-80
2022/01/05 00:54:21;;;;;;;103.78;95.65;;;;;;;-0.10;100.00;100389.19;5044438;28;20061;-80
2022/01/05 00:56:48;;;;;;;102.40;94.55;;;;;;;-0.20;100.00;100389.25;5039981;28;20107;-80
2022/01/05 00:59:16;;;;;;;100.82;92.18;;;;;;;0.02;100.00;100384.59;5044344;28;20060;-81
2022/01/05 01:01:43;;;;;;;102.40;94.05;;;;;;;-0.10;100.00;100390.00;5041962;28;20045;-81
2022/01/05 01:04:10;;;;;;;98.70;90.20;;;;;;;-0.11;100.00;100375.31;5054306;28;20053;-81
2022/01/05 01:06:36;;;;;;;97.53;87.70;;;;;;;-0.06;100.00;100365.28;5045699;28;20430;-81
2022/01/05 01:09:03;;;;;;;80.20;72.15;;;;;;;0.01;100.00;100368.13;5034401;28;20113;-80
2022/01/05 01:11:30;;;;;;;85.03;76.30;;;;;;;0.07;100.00;100374.56;5033941;28;20111;-79
2022/01/05 01:13:59;;;;;;;102.38;80.65;;;;;;;0.15;100.00;100378.09;5036932;28;20044;-80
2022/01/05 01:16:29;;;;;;;78.85;71.45;;;;;;;0.43;100.00;100365.78;5026844;28;20199;-81
2022/01/05 01:18:56;;;;;;;87.72;78.90;;;;;;;0.51;100.00;100374.66;5029943;28;20120;-80
2022/01/05 01:21:24;;;;;;;89.18;80.43;;;;;;;0.69;100.00;100365.84;5036005;28;20045;-80
2022/01/05 01:23:55;;;;;;;90.55;82.43;;;;;;;0.29;100.00;100371.53;5030543;28;20045;-81
2022/01/05 01:26:23;;;;;;;81.93;75.05;;;;;;;0.28;100.00;100369.88;5031609;28;20057;-80
2022/01/05 01:28:50;;;;;;;78.45;71.85;;;;;;;0.29;100.00;100379.34;5038555;28;20049;-80
2022/01/05 01:31:17;;;;;;;80.53;74.18;;;;;;;0.17;100.00;100383.16;5032784;28;20111;-82
2022/01/05 01:33:48;;;;;;;79.70;73.38;;;;;;;0.07;100.00;100367.53;5033705;28;20041;-79
2022/01/05 01:36:15;;;;;;;81.13;74.47;;;;;;;0.07;100.00;100366.72;5028288;28;20060;-81
2022/01/05 01:38:43;;;;;;;80.70;74.75;;;;;;;0.18;100.00;100366.50;5035771;28;20054;-80
2022/01/05 01:41:10;;;;;;;87.28;80.43;;;;;;;0.08;100.00;100361.34;5035567;28;20481;-79
2022/01/05 01:43:37;;;;;;;76.07;70.00;;;;;;;0.16;100.00;100361.44;5033969;28;20052;-82
2022/01/05 01:46:05;;;;;;;75.82;69.45;;;;;;;0.38;100.00;100364.59;5037817;28;20045;-82
2022/01/05 01:48:31;;;;;;;82.85;75.82;;;;;;;0.27;100.00;100362.19;5032093;28;20137;-80
2022/01/05 01:51:02;;;;;;;82.25;75.40;;;;;;;0.19;100.00;100360.31;5029510;28;20475;-81
2022/01/05 01:53:29;;;;;;;88.60;80.80;;;;;;;0.08;100.00;100361.34;5031780;28;20122;-80
2022/01/05 01:55:59;;;;;;;76.70;69.30;;;;;;;0.09;100.00;100360.38;5034353;28;20045;-80
2022/01/05 01:58:27;;;;;;;91.47;83.72;;;;;;;0.36;100.00;100359.50;5032964;28;20037;-80
2022/01/05 02:00:55;;;;;;;99.32;88.70;;;;;;;0.04;100.00;100352.16;5032753;28;20041;-80
2022/01/05 02:03:22;;;;;;;103.10;84.00;;;;;;;-0.10;100.00;100347.44;5035112;28;20065;-80
2022/01/05 02:05:48;;;;;;;233.02;97.82;;;;;;;0.06;100.00;100355.47;5026853;28;20449;-81
2022/01/05 02:08:17;;;;;;;83.18;75.03;;;;;;;0.02;100.00;100342.81;5035312;28;20064;-80
2022/01/05 02:10:44;;;;;;;101.13;92.70;;;;;;;0.12;100.00;100344.44;5039946;28;20049;-82
2022/01/05 02:13:11;;;;;;;109.38;88.50;;;;;;;0.16;100.00;100344.94;5034481;28;20549;-82
2022/01/05 02:15:40;;;;;;;166.63;97.07;;;;;;;-0.15;100.00;100341.81;5036128;28;20382;-80
2022/01/05 02:18:57;;;;;;;92.85;83.55;;;;;;;-0.18;100.00;100350.78;5038682;28;20119;-80
2022/01/05 02:21:01;;;;;;;95.60;86.93;;;;;;;-0.16;100.00;100338.38;5035163;28;20046;-82
2022/01/05 02:23:28;;;;;;;77.55;70.90;;;;;;;-0.16;100.00;100333.16;5030533;28;20045;-81
2022/01/05 02:25:54;;;;;;;114.72;90.65;;;;;;;-0.25;100.00;100340.06;5031561;28;20107;-81
2022/01/05 02:28:21;;;;;;;142.00;117.43;;;;;;;-0.22;100.00;100330.31;5038355;28;20068;-81
2022/01/05 02:30:52;;;;;;;95.60;77.43;;;;;;;0.06;100.00;100337.19;5037698;28;20049;-80
2022/01/05 02:33:19;;;;;;;87.65;78.53;;;;;;;0.01;100.00;100334.19;5033554;28;20050;-80
2022/01/05 02:35:47;;;;;;;93.20;83.47;;;;;;;0.14;100.00;100326.78;5024298;28;20056;-82
2022/01/05 02:38:18;;;;;;;80.28;72.18;;;;;;;0.36;100.00;100333.38;5030945;28;20046;-80
2022/01/05 02:40:45;;;;;;;84.35;75.45;;;;;;;0.17;100.00;100334.34;5032616;28;20041;-80
2022/01/05 02:43:12;;;;;;;89.75;80.15;;;;;;;0.09;100.00;100334.28;5030917;28;20104;-81
2022/01/05 02:45:39;;;;;;;91.88;83.47;;;;;;;0.08;100.00;100344.84;5030542;28;20042;-80
2022/01/05 02:48:06;;;;;;;74.68;66.90;;;;;;;0.06;100.00;100334.56;5035427;28;20060;-82
2022/01/05 02:50:34;;;;;;;67.43;60.90;;;;;;;0.17;100.00;100339.56;5031560;28;20387;-80
2022/01/05 02:53:01;;;;;;;76.18;69.40;;;;;;;-0.10;100.00;100345.63;5033716;28;20053;-81
2022/01/05 02:55:29;;;;;;;72.03;66.13;;;;;;;-0.19;100.00;100348.28;5031780;28;20060;-80
2022/01/05 02:57:58;;;;;;;81.55;72.68;;;;;;;0.15;100.00;100348.50;5035588;28;20072;-82
2022/01/05 03:03:00;;;;;;;70.35;64.55;;;;;;;0.26;100.00;100340.47;5013061;28;20054;-81
2022/01/05 03:05:27;;;;;;;62.47;57.63;;;;;;;0.18;100.00;100340.38;5028267;28;20057;-81
2022/01/05 03:07:53;;;;;;;67.00;62.28;;;;;;;0.17;100.00;100346.56;5026179;28;20432;-81
2022/01/05 03:10:20;;;;;;;80.82;74.85;;;;;;;0.17;100.00;100344.78;5026357;28;20041;-81
2022/01/05 03:12:49;;;;;;;76.82;71.43;;;;;;;0.39;100.00;100348.78;5026784;28;20050;-82
2022/01/05 03:15:16;;;;;;;74.63;69.32;;;;;;;0.45;100.00;100347.34;5026283;28;20115;-80
2022/01/05 03:17:43;;;;;;;72.90;67.50;;;;;;;0.40;100.00;100345.19;5028314;28;20053;-81
2022/01/05 03:20:11;;;;;;;83.72;78.30;;;;;;;0.60;100.00;100348.44;5027022;28;20054;-81
2022/01/05 03:22:38;;;;;;;79.95;74.30;;;;;;;0.40;100.00;100344.38;5028384;28;20111;-80
2022/01/05 03:25:07;;;;;;;71.70;66.43;;;;;;;0.62;100.00;100341.28;5025890;28;20046;-81
2022/01/05 03:27:33;;;;;;;75.43;70.18;;;;;;;0.77;100.00;100346.81;5026197;28;20045;-81
2022/01/05 03:30:02;;;;;;;77.40;72.13;;;;;;;1.10;100.00;100340.03;5019128;28;20050;-81
2022/01/05 03:32:37;;;;;;;75.88;70.63;;;;;;;1.28;100.00;100347.00;5031501;28;20049;-80
2022/01/05 03:35:05;;;;;;;73.30;68.15;;;;;;;1.15;100.00;100350.03;5025849;28;20050;-81
2022/01/05 03:37:32;;;;;;;79.95;74.47;;;;;;;1.16;100.00;100350.84;5027717;28;20081;-81
2022/01/05 03:39:59;;;;;;;91.15;85.13;;;;;;;1.02;100.00;100344.38;5029285;28;20111;-81
2022/01/05 03:42:25;;;;;;;73.55;68.72;;;;;;;1.06;100.00;100335.25;5033067;28;20116;-80
2022/01/05 03:44:52;;;;;;;106.78;100.20;;;;;;;0.71;100.00;100331.72;5021752;28;20046;-81
2022/01/05 03:47:20;;;;;;;107.70;100.95;;;;;;;0.52;100.00;100331.91;5028706;28;20049;-80
2022/01/05 03:49:47;;;;;;;106.43;99.82;;;;;;;0.44;100.00;100335.25;5019432;28;20045;-80
2022/01/05 03:52:14;;;;;;;109.43;102.53;;;;;;;0.91;100.00;100327.97;5022850;28;20081;-81
2022/01/05 03:54:40;;;;;;;120.13;112.25;;;;;;;0.63;100.00;100335.09;5030724;28;20045;-80
2022/01/05 03:57:07;;;;;;;113.55;105.75;;;;;;;0.68;100.00;100325.00;5023279;28;20062;-80
2022/01/05 03:59:34;;;;;;;117.63;109.53;;;;;;;0.71;100.00;100331.72;5025851;28;20107;-80
2022/01/05 04:02:01;;;;;;;120.28;110.65;;;;;;;0.87;100.00;100331.84;5025302;28;20506;-81
2022/01/05 04:04:29;;;;;;;133.52;123.50;;;;;;;1.23;100.00;100334.38;5021961;28;20119;-81
2022/01/05 04:06:56;;;;;;;121.03;111.97;;;;;;;0.95;100.00;100338.13;5021377;28;20050;-80
2022/01/05 04:09:22;;;;;;;121.40;112.55;;;;;;;1.30;100.00;100335.41;5028677;28;20057;-81
2022/01/05 04:11:49;;;;;;;113.18;105.05;;;;;;;1.13;100.00;100336.28;5024264;28;20049;-81
2022/01/05 04:14:16;;;;;;;127.88;118.70;;;;;;;0.87;100.00;100331.84;5024880;28;20065;-81
2022/01/05 04:16:42;;;;;;;137.88;127.57;;;;;;;0.89;100.00;100327.28;5025154;28;20046;-81
2022/01/05 04:19:09;;;;;;;127.93;118.43;;;;;;;1.32;100.00;100325.59;5023963;28;20383;-80
2022/01/05 04:21:37;;;;;;;123.75;114.32;;;;;;;0.95;100.00;100319.81;5023423;28;20045;-81
2022/01/05 04:24:05;;;;;;;126.63;117.38;;;;;;;0.94;100.00;100313.78;5024519;28;20104;-80
2022/01/05 04:26:31;;;;;;;94.70;87.90;;;;;;;1.00;100.00;100328.84;5025141;28;20111;-80
2022/01/05 04:28:58;;;;;;;66.88;60.65;;;;;;;0.55;100.00;100306.28;5024729;28;20057;-79
2022/01/05 04:31:25;;;;;;;76.22;69.88;;;;;;;0.59;100.00;100319.88;5023140;28;20466;-81
2022/01/05 04:33:52;;;;;;;88.40;80.85;;;;;;;0.78;100.00;100316.25;5026271;28;20057;-80
2022/01/05 04:36:19;;;;;;;83.07;76.57;;;;;;;0.44;100.00;100309.94;5020335;28;20057;-80
2022/01/05 04:38:47;;;;;;;81.13;74.78;;;;;;;0.66;100.00;100311.25;5025944;28;20482;-80
2022/01/05 04:41:13;;;;;;;78.15;72.22;;;;;;;1.09;100.00;100314.84;5025529;28;20119;-79
2022/01/05 04:43:40;;;;;;;82.57;74.70;;;;;;;0.77;100.00;100314.63;5018584;28;20042;-80
2022/01/05 04:46:07;;;;;;;67.03;61.10;;;;;;;0.65;100.00;100321.88;5026529;28;20042;-81
2022/01/05 04:48:34;;;;;;;73.30;67.22;;;;;;;0.48;100.00;100322.69;5021943;28;20107;-81
2022/01/05 04:51:00;;;;;;;68.10;62.15;;;;;;;1.35;100.00;100320.06;5029353;28;20049;-79
2022/01/05 04:53:27;;;;;;;63.33;57.63;;;;;;;0.61;100.00;100321.38;5022818;28;20116;-80
2022/01/05 04:55:55;;;;;;;66.90;61.33;;;;;;;0.77;100.00;100325.06;5024311;28;20050;-80
2022/01/05 04:58:22;;;;;;;64.38;58.58;;;;;;;0.44;100.00;100317.78;5025970;28;20049;-80
2022/01/05 05:00:49;;;;;;;60.08;54.67;;;;;;;0.85;100.00;100322.53;5028336;28;20045;-81
2022/01/05 05:03:16;;;;;;;57.80;52.65;;;;;;;0.48;100.00;100328.75;5026289;28;20057;-81
2022/01/05 05:05:42;;;;;;;65.72;60.33;;;;;;;0.60;100.00;100324.94;5023651;28;20123;-80
2022/01/05 05:08:09;;;;;;;65.50;59.90;;;;;;;0.71;100.00;100326.50;5026450;28;20049;-81
2022/01/05 05:10:36;;;;;;;63.42;57.78;;;;;;;0.45;100.00;100319.44;5029001;28;20518;-80
2022/01/05 05:13:09;;;;;;;91.05;84.22;;;;;;;0.55;100.00;100327.19;5024898;28;20082;-80
2022/01/05 05:15:35;;;;;;;90.13;83.82;;;;;;;0.35;100.00;100331.75;5023307;28;20065;-81
2022/01/05 05:18:03;;;;;;;85.45;79.32;;;;;;;0.22;100.00;100328.69;5023048;28;20112;-80
2022/01/05 05:20:29;;;;;;;64.25;58.85;;;;;;;0.22;100.00;100337.34;5031840;28;20042;-81
2022/01/05 05:22:56;;;;;;;62.35;57.15;;;;;;;0.48;100.00;100330.53;5024309;28;20053;-80
2022/01/05 05:25:23;;;;;;;58.92;53.80;;;;;;;0.12;100.00;100325.28;5028423;28;20472;-81
2022/01/05 05:27:50;;;;;;;58.35;53.38;;;;;;;0.37;100.00;100329.81;5025461;28;20487;-81
2022/01/05 05:30:18;;;;;;;64.32;58.75;;;;;;;-0.08;100.00;100332.44;5027824;28;20141;-80
2022/01/05 05:32:44;;;;;;;71.03;65.22;;;;;;;0.13;100.00;100335.59;5025567;28;20482;-80
2022/01/05 05:35:11;;;;;;;78.80;72.25;;;;;;;0.35;100.00;100346.59;5013847;28;20124;-81
2022/01/05 05:37:38;;;;;;;73.53;67.45;;;;;;;0.36;100.00;100341.22;5024701;28;20053;-80
2022/01/05 05:40:08;;;;;;;61.03;55.72;;;;;;;0.39;100.00;100343.56;5028150;28;20045;-82
2022/01/05 05:42:35;;;;;;;59.90;54.90;;;;;;;0.60;100.00;100331.97;5031260;28;20394;-84
2022/01/05 05:45:02;;;;;;;68.97;63.35;;;;;;;0.41;100.00;100327.72;5030016;28;20049;-81
2022/01/05 05:47:30;;;;;;;64.43;59.00;;;;;;;0.29;100.00;100318.47;4931658;28;20127;-80
2022/01/05 05:49:57;;;;;;;60.10;55.28;;;;;;;0.77;100.00;100325.91;5020772;28;20053;-80
2022/01/05 05:52:24;;;;;;;60.97;56.60;;;;;;;0.43;100.00;100321.38;5031840;28;20111;-79
2022/01/05 05:54:52;;;;;;;60.20;55.40;;;;;;;0.40;100.00;100328.69;5031314;28;20470;-81
2022/01/05 05:57:19;;;;;;;73.65;67.25;;;;;;;0.23;100.00;100327.69;5027919;28;20458;-82
2022/01/05 05:59:46;;;;;;;73.55;66.82;;;;;;;0.58;100.00;100334.72;5023026;28;20049;-81
2022/01/05 06:02:13;;;;;;;79.60;71.90;;;;;;;0.75;100.00;100343.50;5022752;28;20072;-80
2022/01/05 06:04:41;;;;;;;77.68;70.15;;;;;;;0.77;100.00;100332.91;5017867;28;20556;-79
2022/01/05 06:07:08;;;;;;;110.63;93.57;;;;;;;0.89;100.00;100342.16;5020141;28;20054;-80
2022/01/05 06:09:34;;;;;;;85.07;76.55;;;;;;;1.02;100.00;100337.34;5030202;28;20041;-80
2022/01/05 06:12:01;;;;;;;90.80;81.60;;;;;;;1.37;100.00;100340.84;5027309;28;20049;-81
2022/01/05 06:14:30;;;;;;;98.35;88.22;;;;;;;1.55;100.00;100332.94;5022697;28;20045;-80
2022/01/05 06:16:57;;;;;;;104.32;88.72;;;;;;;1.18;100.00;100347.13;5027441;28;20053;-80
2022/01/05 06:19:24;;;;;;;94.10;84.10;;;;;;;1.29;100.00;100346.84;5027944;28;20096;-81
2022/01/05 06:21:52;;;;;;;104.85;93.43;;;;;;;1.48;100.00;100350.22;5023112;28;20465;-81
2022/01/05 06:24:19;;;;;;;93.25;83.78;;;;;;;1.72;100.00;100349.50;5024676;28;20053;-79
2022/01/05 06:26:46;;;;;;;94.75;85.55;;;;;;;1.65;100.00;100345.88;5031749;28;20477;-79
2022/01/05 06:29:14;;;;;;;93.97;84.30;;;;;;;1.69;100.00;100347.19;5029574;28;20042;-79
2022/01/05 06:31:40;;;;;;;99.30;90.30;;;;;;;2.49;100.00;100350.22;5024082;28;20108;-80
2022/01/05 06:34:08;;;;;;;93.75;84.50;;;;;;;2.76;100.00;100346.47;5025205;28;20049;-80
2022/01/05 06:36:35;;;;;;;81.13;72.60;;;;;;;2.94;100.00;100343.69;5029837;28;20107;-80
2022/01/05 06:39:04;;;;;;;115.82;106.00;;;;;;;3.48;100.00;100343.91;5030228;28;20046;-81
2022/01/05 06:41:30;;;;;;;107.38;97.32;;;;;;;3.12;100.00;100352.19;5032759;28;20056;-81
2022/01/05 06:43:57;;;;;;;100.18;91.45;;;;;;;3.51;100.00;100351.47;5031431;28;20061;-81
2022/01/05 06:46:24;;;;;;;109.57;100.28;;;;;;;3.39;100.00;100352.81;5034127;28;20042;-80
2022/01/05 06:48:51;;;;;;;127.43;116.07;;;;;;;2.92;100.00;100353.50;5028973;28;20050;-80
2022/01/05 06:51:18;;;;;;;112.40;100.18;;;;;;;3.06;100.00;100357.28;5034885;28;20061;-79
2022/01/05 06:53:45;;;;;;;116.07;103.30;;;;;;;3.08;100.00;100356.13;5028591;28;20052;-79
2022/01/05 06:56:13;;;;;;;538.95;272.20;;;;;;;3.05;100.00;100356.44;5033585;28;20563;-81
2022/01/05 06:58:39;;;;;;;471.80;240.90;;;;;;;3.10;100.00;100361.22;5033897;28;20413;-83
2022/01/05 07:01:06;;;;;;;351.60;169.23;;;;;;;6.00;100.00;100360.56;5033221;28;20547;-80
2022/01/05 07:03:34;;;;;;;197.55;129.07;;;;;;;5.94;100.00;100361.28;5030992;28;20062;-81
2022/01/05 07:06:01;;;;;;;146.45;117.53;;;;;;;3.87;100.00;100369.38;5018401;28;20928;-81
2022/01/05 07:08:28;;;;;;;175.45;128.93;;;;;;;3.32;100.00;100363.13;5027151;28;20461;-78
2022/01/05 07:10:54;;;;;;;162.02;125.72;;;;;;;3.75;100.00;100362.84;5027872;28;20053;-80
2022/01/05 07:13:23;;;;;;;161.52;127.68;;;;;;;4.78;100.00;100357.31;5027323;28;20049;-80
2022/01/05 07:15:50;;;;;;;167.15;139.38;;;;;;;5.59;100.00;100362.81;5026325;28;20508;-80
2022/01/05 07:18:16;;;;;;;122.20;109.40;;;;;;;6.59;100.00;100360.38;5025565;28;20072;-83
2022/01/05 07:20:45;;;;;;;115.53;103.60;;;;;;;7.71;100.00;100359.56;5032366;28;20049;-81
2022/01/05 07:23:11;;;;;;;106.88;97.78;;;;;;;8.10;100.00;100360.75;5027495;28;20128;-81
2022/01/05 07:25:38;;;;;;;94.72;87.55;;;;;;;8.95;100.00;100361.16;5026127;28;20127;-80
2022/01/05 07:28:05;;;;;;;102.15;93.88;;;;;;;9.30;100.00;100361.75;5025274;28;20104;-80
2022/01/05 07:30:33;;;;;;;98.32;89.35;;;;;;;9.05;100.00;100364.22;5025042;28;20122;-80
2022/01/05 07:33:00;;;;;;;112.30;101.38;;;;;;;9.37;100.00;100367.03;5024469;28;20540;-80
2022/01/05 07:35:27;;;;;;;124.32;111.97;;;;;;;9.80;100.00;100358.56;5034288;28;20053;-80
2022/01/05 07:37:53;;;;;;;122.00;110.15;;;;;;;10.19;100.00;100351.47;5025438;28;20456;-79
2022/01/05 07:40:20;;;;;;;104.90;95.28;;;;;;;10.05;100.00;100356.84;5026770;28;20058;-81
2022/01/05 07:42:47;;;;;;;101.30;91.55;;;;;;;9.81;100.00;100354.91;5024804;28;20079;-81
2022/01/05 07:45:14;;;;;;;99.30;91.07;;;;;;;10.03;100.00;100356.22;5028752;28;20114;-81
2022/01/05 07:47:42;;;;;;;102.10;93.25;;;;;;;11.08;100.00;100352.34;5033671;28;20386;-79
2022/01/05 07:50:14;;;;;;;98.25;89.65;;;;;;;11.75;100.00;100355.13;5032924;28;20103;-81
2022/01/05 07:52:41;;;;;;;139.98;124.53;;;;;;;11.82;100.00;100359.34;5033569;28;20092;-81
2022/01/05 07:55:09;;;;;;;185.60;147.32;;;;;;;12.32;100.00;100347.69;5032305;28;20111;-80
2022/01/05 07:57:36;;;;;;;126.63;112.65;;;;;;;12.47;100.00;100348.09;5032405;28;20394;-79
2022/01/05 08:00:04;;;;;;;107.43;96.45;;;;;;;12.51;100.00;100356.44;5032439;28;20061;-79
2022/01/05 08:02:31;;;;;;;96.70;88.22;;;;;;;12.62;100.00;100353.00;5025986;28;20050;-81
2022/01/05 08:04:59;;;;;;;99.00;89.70;;;;;;;12.96;100.00;100355.97;5035271;28;20049;-79
2022/01/05 08:07:26;;;;;;;140.88;114.38;;;;;;;12.79;100.00;100345.16;5030544;28;20053;-79
2022/01/05 08:09:53;;;;;;;81.72;74.97;;;;;;;12.68;100.00;100352.09;5029981;28;20203;-81
2022/01/05 08:12:19;;;;;;;81.80;75.07;;;;;;;13.60;100.00;100354.22;5030479;28;20045;-80
2022/01/05 08:14:46;;;;;;;93.80;84.97;;;;;;;13.93;100.00;100350.09;5032771;28;20041;-80
2022/01/05 08:17:14;;;;;;;82.80;76.13;;;;;;;13.95;100.00;100348.81;5032760;28;20053;-80
2022/01/05 08:19:41;;;;;;;80.70;74.05;;;;;;;14.51;100.00;100350.91;5035283;28;20095;-81
2022/01/05 08:22:09;;;;;;;75.97;70.57;;;;;;;13.97;100.00;100348.56;5031485;28;20492;-79
2022/01/05 08:24:36;;;;;;;73.30;68.07;;;;;;;14.02;100.00;100339.88;5032071;28;20465;-81
2022/01/05 08:27:03;;;;;;;65.95;61.05;;;;;;;14.06;100.00;100347.16;5031935;28;20111;-80
2022/01/05 08:29:30;;;;;;;70.05;64.55;;;;;;;13.61;100.00;100347.84;5030795;28;20089;-81
2022/01/05 08:31:58;;;;;;;74.07;68.03;;;;;;;14.33;100.00;100333.22;5031605;28;20053;-80
2022/01/05 08:34:25;;;;;;;80.35;72.53;;;;;;;14.08;100.00;100333.56;5034841;28;20454;-80
2022/01/05 08:36:51;;;;;;;80.88;73.88;;;;;;;14.20;100.00;100335.13;5030356;28;20057;-80
2022/01/05 08:39:20;;;;;;;74.70;68.43;;;;;;;14.63;100.00;100341.78;5031155;28;20041;-81
2022/01/05 08:41:47;;;;;;;77.47;71.28;;;;;;;15.25;100.00;100340.91;5027282;28;20068;-79
2022/01/05 08:44:13;;;;;;;83.18;75.85;;;;;;;15.70;100.00;100331.06;5031066;28;20126;-79
2022/01/05 08:46:40;;;;;;;85.22;77.18;;;;;;;15.77;100.00;100331.72;5031600;28;20049;-80
2022/01/05 08:49:07;;;;;;;79.95;73.30;;;;;;;15.30;100.00;100329.44;5034538;28;20061;-80
2022/01/05 08:51:34;;;;;;;80.82;73.82;;;;;;;16.04;100.00;100326.41;5032547;28;20045;-81
2022/01/05 08:54:00;;;;;;;80.00;72.93;;;;;;;16.35;100.00;100340.09;5030183;28;20107;-80
2022/01/05 08:56:29;;;;;;;77.50;70.50;;;;;;;16.62;100.00;100332.06;5030874;28;20061;-79
2022/01/05 08:58:56;;;;;;;74.07;67.97;;;;;;;16.58;100.00;100329.06;5025396;28;20049;-79
2022/01/05 09:01:24;;;;;;;87.90;81.30;;;;;;;16.23;100.00;100324.19;5032771;28;20045;-80
2022/01/05 09:03:52;;;;;;;84.20;78.00;;;;;;;16.09;100.00;100322.94;5030221;28;20493;-81
2022/01/05 09:06:19;;;;;;;83.97;77.85;;;;;;;16.30;100.00;100329.31;5031134;28;20049;-83
2022/01/05 09:08:45;;;;;;;83.28;77.15;;;;;;;16.86;100.00;100321.81;5028469;28;20466;-79
2022/01/05 09:11:12;;;;;;;77.60;71.70;;;;;;;17.47;100.00;100322.19;5032446;28;20555;-80
2022/01/05 09:13:40;;;;;;;83.68;77.35;;;;;;;18.01;100.00;100316.53;5028410;28;20073;-80
2022/01/05 09:16:07;;;;;;;89.10;82.10;;;;;;;17.83;100.00;100314.31;5031211;28;20448;-79
2022/01/05 09:18:34;;;;;;;82.40;76.05;;;;;;;17.72;100.00;100305.38;5033891;28;20046;-81
2022/01/05 09:21:01;;;;;;;89.05;82.10;;;;;;;17.65;100.00;100299.44;5030046;28;20053;-80
2022/01/05 09:23:27;;;;;;;93.40;86.60;;;;;;;17.91;100.00;100303.03;5030199;28;20042;-79
2022/01/05 09:25:54;;;;;;;82.40;76.45;;;;;;;17.90;100.00;100296.06;5029881;28;20050;-81
2022/01/05 09:28:21;;;;;;;86.90;80.68;;;;;;;19.01;100.00;100292.94;5028706;28;20053;-80
2022/01/05 09:30:49;;;;;;;86.35;80.10;;;;;;;18.65;100.00;100291.06;5030021;28;20103;-81
2022/01/05 09:33:16;;;;;;;77.57;72.07;;;;;;;17.74;100.00;100297.06;5030817;28;20084;-80
2022/01/05 09:35:44;;;;;;;79.28;73.30;;;;;;;18.59;100.00;100299.41;5029927;28;20053;-79
2022/01/05 09:38:23;;;;;;;85.95;79.88;;;;;;;19.28;99.46;100298.00;5031913;28;20041;-80
2022/01/05 09:43:48;;;;;;;78.05;71.65;;;;;;;20.02;93.72;100301.72;5029078;28;20045;-81
2022/01/05 09:46:30;;;;;;;71.97;66.57;;;;;;;17.16;86.05;100297.88;5031768;28;20394;-80
2022/01/05 09:49:03;;;;;;;70.05;64.47;;;;;;;17.54;100.00;100295.91;5031340;28;20049;-81
2022/01/05 09:51:34;;;;;;;65.45;60.53;;;;;;;17.04;95.35;100294.59;5028960;28;20129;-79
2022/01/05 09:54:02;;;;;;;69.88;64.55;;;;;;;15.56;96.65;100285.09;5029207;28;20139;-81
2022/01/05 09:56:31;;;;;;;75.70;70.30;;;;;;;15.82;100.00;100274.72;5030292;28;20115;-78
2022/01/05 09:59:00;;;;;;;75.30;69.90;;;;;;;17.04;86.96;100272.31;5028044;28;20058;-83
2022/01/05 10:01:31;;;;;;;74.28;68.97;;;;;;;16.06;99.65;100272.56;5031209;28;20402;-79
2022/01/05 10:03:59;;;;;;;79.07;73.28;;;;;;;15.79;98.55;100265.31;5030790;28;20524;-79
2022/01/05 10:06:26;;;;;;;83.88;77.68;;;;;;;16.55;96.83;100269.78;5027968;28;20050;-83
2022/01/05 10:08:52;;;;;;;71.13;65.63;;;;;;;16.36;100.00;100264.81;5029533;28;20104;-81
2022/01/05 10:11:22;;;;;;;76.22;70.63;;;;;;;15.89;94.22;100270.00;5027512;28;20049;-80
2022/01/05 10:13:49;;;;;;;75.97;70.22;;;;;;;16.57;93.13;100275.69;5029147;28;20454;-79
2022/01/05 10:16:16;;;;;;;73.65;67.70;;;;;;;16.96;97.71;100272.78;5029925;28;20110;-80
2022/01/05 10:18:46;;;;;;;71.50;65.93;;;;;;;16.86;100.00;100266.28;5032924;28;20057;-80
2022/01/05 10:21:15;;;;;;;75.80;69.88;;;;;;;15.61;100.00;100260.25;5029935;28;20057;-80
2022/01/05 10:23:45;;;;;;;74.50;68.55;;;;;;;16.58;100.00;100254.00;5023665;28;20128;-79
2022/01/05 10:26:20;;;;;;;87.93;81.18;;;;;;;16.71;100.00;100256.25;5028048;28;20050;-79
2022/01/05 10:28:47;;;;;;;85.82;79.72;;;;;;;18.31;90.33;100251.25;5024471;28;20448;-81
2022/01/05 10:31:15;;;;;;;87.78;81.35;;;;;;;18.62;84.98;100248.56;5028159;28;20053;-80
2022/01/05 10:33:42;;;;;;;85.25;79.05;;;;;;;18.32;86.17;100249.38;5030082;28;20084;-79
2022/01/05 10:36:10;;;;;;;84.57;78.28;;;;;;;18.25;83.85;100236.19;5029466;28;20111;-80
2022/01/05 10:38:37;;;;;;;79.47;73.32;;;;;;;16.60;91.26;100235.78;5028721;28;20045;-80
2022/01/05 10:41:15;;;;;;;91.32;84.78;;;;;;;17.03;84.39;100230.44;5024943;28;20453;-80
2022/01/05 10:44:23;;;;;;;84.05;77.57;;;;;;;18.63;75.05;100230.53;5030272;28;20049;-79
2022/01/05 10:46:52;;;;;;;86.22;79.72;;;;;;;19.42;76.13;100223.59;4978416;28;20057;-80
2022/01/05 10:49:31;;;;;;;79.93;73.68;;;;;;;18.00;83.04;100228.09;5020001;28;20387;-81
2022/01/05 10:52:01;;;;;;;78.15;72.03;;;;;;;17.47;98.20;100220.19;5019118;28;20116;-80
2022/01/05 10:54:30;;;;;;;82.38;75.97;;;;;;;17.30;93.47;100227.63;5029210;28;20449;-81
2022/01/05 10:57:08;;;;;;;83.57;76.70;;;;;;;18.12;81.37;100209.03;5028959;28;20053;-79
2022/01/05 10:59:37;;;;;;;80.00;73.57;;;;;;;19.56;76.14;100216.53;5030320;28;20133;-79
2022/01/05 11:02:28;;;;;;;80.95;74.50;;;;;;;19.09;68.08;100215.13;5023688;28;20064;-81
2022/01/05 11:04:58;;;;;;;88.72;82.03;;;;;;;19.98;71.60;100220.63;5032438;28;20045;-79
2022/01/05 11:07:29;;;;;;;82.97;77.07;;;;;;;21.99;53.85;100222.78;5030089;28;20045;-78
2022/01/05 11:09:57;;;;;;;82.03;75.88;;;;;;;21.36;49.86;100210.41;5029735;28;20050;-80
2022/01/05 11:12:32;;;;;;;87.45;80.95;;;;;;;21.11;54.32;100216.91;5027891;28;20440;-79